createdAt,value
2024-05-09T00:00:22.514Z,10.2781
2024-05-09T00:01:18.931Z,10.3222
2024-05-09T00:02:19.790Z,10.3918
2024-05-09T00:03:22.305Z,10.3281
2024-05-09T00:04:22.234Z,10.3285
2024-05-09T00:05:24.431Z,10.4061
2024-05-09T00:06:24.375Z,10.3717
2024-05-09T00:07:26.423Z,10.3470
2024-05-09T00:08:28.827Z,10.3439
2024-05-09T00:09:31.022Z,10.3300
2024-05-09T00:10:36.970Z,10.2791
2024-05-09T00:11:34.145Z,10.3040
2024-05-09T00:12:36.326Z,10.2534
2024-05-09T00:13:38.506Z,10.2104
2024-05-09T00:14:40.748Z,10.2187
2024-05-09T00:15:42.905Z,10.2541
2024-05-09T00:16:45.086Z,10.2139
2024-05-09T00:17:47.417Z,10.1840
2024-05-09T00:18:47.467Z,10.2063
2024-05-09T00:19:48.991Z,10.2390
2024-05-09T00:20:49.789Z,10.2586
2024-05-09T00:21:49.574Z,10.1345
2024-05-09T00:22:51.776Z,10.1500
2024-05-09T00:23:52.351Z,10.1676
2024-05-09T00:24:53.238Z,10.1468
2024-05-09T00:25:55.427Z,10.1202
2024-05-09T00:26:57.629Z,10.1145
2024-05-09T00:27:59.820Z,10.0712
2024-05-09T00:29:02.219Z,10.0821
2024-05-09T00:30:04.207Z,10.0481
2024-05-09T00:31:04.175Z,10.0750
2024-05-09T00:32:06.414Z,10.0670
2024-05-09T00:33:07.859Z,10.1015
2024-05-09T00:34:07.094Z,10.1035
2024-05-09T00:35:07.055Z,10.0467
2024-05-09T00:36:09.346Z,10.0074
2024-05-09T00:37:11.553Z,10.0541
2024-05-09T00:38:13.780Z,10.0390
2024-05-09T00:39:15.987Z,10.0648
2024-05-09T00:40:26.568Z,10.0632
2024-05-09T00:41:19.928Z,10.0153
2024-05-09T00:42:19.844Z,10.0650
2024-05-09T00:43:22.070Z,10.0600
2024-05-09T00:44:24.518Z,10.0323
2024-05-09T00:45:24.503Z,10.0693
2024-05-09T00:46:24.487Z,10.0146
2024-05-09T00:47:26.886Z,10.0644
2024-05-09T00:48:27.188Z,10.0728
2024-05-09T00:49:28.520Z,10.0809
2024-05-09T00:50:35.230Z,10.0605
2024-05-09T00:51:29.411Z,10.1382
2024-05-09T00:52:31.612Z,10.1273
2024-05-09T00:53:33.950Z,10.1381
2024-05-09T00:54:33.938Z,10.1102
2024-05-09T00:55:36.150Z,10.0692
2024-05-09T00:56:36.283Z,10.1121
2024-05-09T00:57:38.580Z,10.0412
2024-05-09T00:58:40.800Z,10.1053
2024-05-09T00:59:43.018Z,10.1007
2024-05-09T01:00:45.422Z,10.1543
2024-05-09T01:01:48.407Z,10.1250
2024-05-09T01:02:48.357Z,10.1235
2024-05-09T01:03:51.672Z,10.1599
2024-05-09T01:04:51.996Z,10.1218
2024-05-09T01:05:52.032Z,10.0976
2024-05-09T01:06:52.006Z,10.1066
2024-05-09T01:07:54.158Z,10.1643
2024-05-09T01:08:56.437Z,10.1590
2024-05-09T01:09:58.776Z,10.1875
2024-05-09T01:11:01.386Z,10.1775
2024-05-09T01:12:02.523Z,10.2096
2024-05-09T01:13:02.868Z,10.2052
2024-05-09T01:14:05.202Z,10.2180
2024-05-09T01:15:07.521Z,10.1975
2024-05-09T01:16:12.821Z,10.2182
2024-05-09T01:17:11.307Z,10.2026
2024-05-09T01:18:12.477Z,10.1838
2024-05-09T01:19:13.789Z,10.1858
2024-05-09T01:20:20.052Z,10.2562
2024-05-09T01:21:14.968Z,10.2305
2024-05-09T01:22:14.927Z,10.1944
2024-05-09T01:23:17.224Z,10.2489
2024-05-09T01:24:17.926Z,10.3089
2024-05-09T01:25:20.265Z,10.2744
2024-05-09T01:26:22.387Z,10.2334
2024-05-09T01:27:24.724Z,10.2407
2024-05-09T01:28:26.792Z,10.2183
2024-05-09T01:29:29.166Z,10.2176
2024-05-09T01:30:35.111Z,10.2094
2024-05-09T01:31:32.222Z,10.2346
2024-05-09T01:32:34.649Z,10.2386
2024-05-09T01:33:34.724Z,10.2387
2024-05-09T01:34:34.622Z,10.2093
2024-05-09T01:35:36.962Z,10.2662
2024-05-09T01:36:36.766Z,10.2912
2024-05-09T01:37:39.857Z,10.3171
2024-05-09T01:38:39.624Z,10.3054
2024-05-09T01:39:41.704Z,10.2201
2024-05-09T01:40:43.937Z,10.2540
2024-05-09T01:41:46.181Z,10.2522
2024-05-09T01:42:48.429Z,10.2868
2024-05-09T01:43:50.604Z,10.2865
2024-05-09T01:44:52.760Z,10.2341
2024-05-09T01:45:54.926Z,10.2478
2024-05-09T01:46:57.247Z,10.2632
2024-05-09T01:47:59.741Z,10.3110
2024-05-09T01:48:59.833Z,10.3230
2024-05-09T01:49:59.745Z,10.3394
2024-05-09T01:51:01.949Z,10.3130
2024-05-09T01:52:01.936Z,10.2417
2024-05-09T01:53:04.161Z,10.2891
2024-05-09T01:54:06.464Z,10.2632
2024-05-09T01:55:08.554Z,10.2342
2024-05-09T01:56:10.795Z,10.2982
2024-05-09T01:57:12.847Z,10.2818
2024-05-09T01:58:15.110Z,10.3760
2024-05-09T01:59:17.252Z,10.2732
2024-05-09T02:00:30.157Z,10.2647
2024-05-09T02:01:20.303Z,10.2778
2024-05-09T02:02:22.627Z,10.2717
2024-05-09T02:03:25.038Z,10.2886
2024-05-09T02:04:25.051Z,10.3305
2024-05-09T02:05:25.029Z,10.3380
2024-05-09T02:06:27.099Z,10.2653
2024-05-09T02:07:29.190Z,10.2599
2024-05-09T02:08:31.490Z,10.3212
2024-05-09T02:09:31.533Z,10.2952
2024-05-09T02:10:33.875Z,10.3086
2024-05-09T02:11:33.996Z,10.2965
2024-05-09T02:12:33.877Z,10.2902
2024-05-09T02:13:33.740Z,10.2897
2024-05-09T02:14:36.054Z,10.3059
2024-05-09T02:15:37.022Z,10.3650
2024-05-09T02:16:39.374Z,10.4177
2024-05-09T02:17:40.511Z,10.3734
2024-05-09T02:18:40.586Z,10.3521
2024-05-09T02:19:41.430Z,10.3637
2024-05-09T02:20:44.148Z,10.4196
2024-05-09T02:21:44.121Z,10.4217
2024-05-09T02:22:46.386Z,10.3701
2024-05-09T02:23:46.372Z,10.4116
2024-05-09T02:24:48.540Z,10.4622
2024-05-09T02:25:50.738Z,10.4597
2024-05-09T02:26:52.888Z,10.4650
2024-05-09T02:27:55.056Z,10.4255
2024-05-09T02:28:57.323Z,10.4315
2024-05-09T02:29:59.492Z,10.5060
2024-05-09T02:31:01.698Z,10.4738
2024-05-09T02:32:02.977Z,10.4543
2024-05-09T02:33:03.463Z,10.4617
2024-05-09T02:34:03.420Z,10.4707
2024-05-09T02:35:03.423Z,10.4789
2024-05-09T02:36:03.365Z,10.4876
2024-05-09T02:37:05.734Z,10.5325
2024-05-09T02:38:06.692Z,10.5510
2024-05-09T02:39:06.756Z,10.4842
2024-05-09T02:40:14.273Z,10.5174
2024-05-09T02:41:10.083Z,10.5504
2024-05-09T02:42:12.333Z,10.5645
2024-05-09T02:43:14.566Z,10.5912
2024-05-09T02:44:16.896Z,10.5807
2024-05-09T02:45:16.807Z,10.5631
2024-05-09T02:46:19.172Z,10.4609
2024-05-09T02:47:21.757Z,10.4571
2024-05-09T02:48:21.821Z,10.5288
2024-05-09T02:49:24.221Z,10.4825
2024-05-09T02:50:33.060Z,10.4715
2024-05-09T02:51:26.870Z,10.4614
2024-05-09T02:52:27.293Z,10.5122
2024-05-09T02:53:27.157Z,10.5045
2024-05-09T02:54:29.323Z,10.5225
2024-05-09T02:55:31.605Z,10.4583
2024-05-09T02:56:34.045Z,10.4578
2024-05-09T02:57:36.174Z,10.4495
2024-05-09T02:58:38.440Z,10.4853
2024-05-09T02:59:40.730Z,10.4667
2024-05-09T03:00:42.831Z,10.3862
2024-05-09T03:01:42.492Z,10.3640
2024-05-09T03:02:42.735Z,10.3501
2024-05-09T03:03:42.730Z,10.3872
2024-05-09T03:04:42.759Z,10.4347
2024-05-09T03:05:45.394Z,10.3741
2024-05-09T03:06:45.457Z,10.4109
2024-05-09T03:07:46.409Z,10.3821
2024-05-09T03:08:46.270Z,10.4374
2024-05-09T03:09:48.389Z,10.3780
2024-05-09T03:10:50.584Z,10.4107
2024-05-09T03:11:52.981Z,10.4182
2024-05-09T03:12:52.928Z,10.4371
2024-05-09T03:13:55.099Z,10.4671
2024-05-09T03:14:57.200Z,10.3872
2024-05-09T03:15:59.537Z,10.3716
2024-05-09T03:17:01.915Z,10.3852
2024-05-09T03:18:02.142Z,10.3523
2024-05-09T03:19:02.465Z,10.3574
2024-05-09T03:20:05.110Z,10.3342
2024-05-09T03:21:04.355Z,10.3607
2024-05-09T03:22:06.660Z,10.3612
2024-05-09T03:23:06.795Z,10.4260
2024-05-09T03:24:09.167Z,10.4368
2024-05-09T03:25:11.351Z,10.3451
2024-05-09T03:26:13.665Z,10.2904
2024-05-09T03:27:15.908Z,10.2474
2024-05-09T03:28:15.763Z,10.2376
2024-05-09T03:29:18.078Z,10.3066
2024-05-09T03:30:29.289Z,10.3200
2024-05-09T03:31:18.947Z,10.2733
2024-05-09T03:32:21.488Z,10.3290
2024-05-09T03:33:21.835Z,10.3442
2024-05-09T03:34:22.058Z,10.2478
2024-05-09T03:35:25.005Z,10.2609
2024-05-09T03:36:24.993Z,10.2313
2024-05-09T03:37:25.464Z,10.2120
2024-05-09T03:38:26.242Z,10.2546
2024-05-09T03:39:28.530Z,10.2409
2024-05-09T03:40:31.401Z,10.2535
2024-05-09T03:41:31.480Z,10.2737
2024-05-09T03:42:31.932Z,10.2371
2024-05-09T03:43:31.822Z,10.2956
2024-05-09T03:44:34.217Z,10.2749
2024-05-09T03:45:34.191Z,10.2312
2024-05-09T03:46:36.417Z,10.2367
2024-05-09T03:47:38.848Z,10.2462
2024-05-09T03:48:38.968Z,10.2510
2024-05-09T03:49:41.206Z,10.2708
2024-05-09T03:50:43.610Z,10.2255
2024-05-09T03:51:44.082Z,10.2446
2024-05-09T03:52:44.024Z,10.2487
2024-05-09T03:53:44.273Z,10.1976
2024-05-09T03:54:46.434Z,10.2195
2024-05-09T03:55:48.620Z,10.2710
2024-05-09T03:56:50.938Z,10.3009
2024-05-09T03:57:53.271Z,10.2607
2024-05-09T03:58:55.592Z,10.2221
2024-05-09T03:59:57.744Z,10.1993
2024-05-09T04:01:00.963Z,10.2354
2024-05-09T04:02:01.995Z,10.2426
2024-05-09T04:03:02.330Z,10.3075
2024-05-09T04:04:02.510Z,10.2956
2024-05-09T04:05:04.893Z,10.3265
2024-05-09T04:06:05.411Z,10.3279
2024-05-09T04:07:05.273Z,10.3421
2024-05-09T04:08:07.710Z,10.3310
2024-05-09T04:09:07.639Z,10.3879
2024-05-09T04:10:16.994Z,10.3718
2024-05-09T04:11:10.992Z,10.3205
2024-05-09T04:12:12.023Z,10.3111
2024-05-09T04:13:13.015Z,10.3851
2024-05-09T04:14:15.293Z,10.3409
2024-05-09T04:15:15.580Z,10.3874
2024-05-09T04:16:17.755Z,10.3598
2024-05-09T04:17:20.595Z,10.3184
2024-05-09T04:18:22.442Z,10.3562
2024-05-09T04:19:24.640Z,10.3340
2024-05-09T04:20:33.909Z,10.4032
2024-05-09T04:21:25.563Z,10.4188
2024-05-09T04:22:27.718Z,10.4714
2024-05-09T04:23:30.009Z,10.4767
2024-05-09T04:24:29.998Z,10.4416
2024-05-09T04:25:32.275Z,10.3856
2024-05-09T04:26:34.627Z,10.3601
2024-05-09T04:27:37.832Z,10.4056
2024-05-09T04:28:37.707Z,10.3700
2024-05-09T04:29:40.028Z,10.3856
2024-05-09T04:30:42.684Z,10.4263
2024-05-09T04:31:43.022Z,10.3934
2024-05-09T04:32:45.427Z,10.3706
2024-05-09T04:33:46.732Z,10.3942
2024-05-09T04:34:46.752Z,10.4111
2024-05-09T04:35:48.999Z,10.4315
2024-05-09T04:36:51.180Z,10.3957
2024-05-09T04:37:51.469Z,10.3711
2024-05-09T04:38:53.677Z,10.4430
2024-05-09T04:39:55.920Z,10.4596
2024-05-09T04:40:58.103Z,10.4358
2024-05-09T04:42:00.293Z,10.4869
2024-05-09T04:43:02.382Z,10.4422
2024-05-09T04:44:04.548Z,10.4089
2024-05-09T04:45:06.692Z,10.4945
2024-05-09T04:46:08.902Z,10.4728
2024-05-09T04:47:11.986Z,10.4405
2024-05-09T04:48:12.177Z,10.4822
2024-05-09T04:49:12.106Z,10.4764
2024-05-09T04:50:21.182Z,10.4715
2024-05-09T04:51:15.381Z,10.4692
2024-05-09T04:52:18.376Z,10.4973
2024-05-09T04:53:18.428Z,10.4268
2024-05-09T04:54:26.209Z,10.4823
2024-05-09T04:55:19.449Z,10.4570
2024-05-09T04:56:21.644Z,10.4267
2024-05-09T04:57:23.880Z,10.3942
2024-05-09T04:58:25.980Z,10.4569
2024-05-09T04:59:28.328Z,10.4855
2024-05-09T05:00:35.035Z,10.4679
2024-05-09T05:01:29.292Z,10.4777
2024-05-09T05:02:31.616Z,10.5290
2024-05-09T05:03:34.036Z,10.4722
2024-05-09T05:04:33.998Z,10.4703
2024-05-09T05:05:36.266Z,10.5129
2024-05-09T05:06:38.544Z,10.5657
2024-05-09T05:07:40.648Z,10.6200
2024-05-09T05:08:42.863Z,10.5644
2024-05-09T05:09:45.024Z,10.5402
2024-05-09T05:10:47.945Z,10.5850
2024-05-09T05:11:49.572Z,10.6084
2024-05-09T05:12:51.521Z,10.5839
2024-05-09T05:13:52.475Z,10.5360
2024-05-09T05:14:54.957Z,10.5248
2024-05-09T05:15:54.860Z,10.4878
2024-05-09T05:16:55.772Z,10.5395
2024-05-09T05:17:55.884Z,10.5704
2024-05-09T05:18:56.130Z,10.5578
2024-05-09T05:19:57.250Z,10.6042
2024-05-09T05:20:57.397Z,10.5612
2024-05-09T05:21:57.448Z,10.5563
2024-05-09T05:22:58.256Z,10.6269
2024-05-09T05:24:00.560Z,10.6319
2024-05-09T05:25:02.877Z,10.6391
2024-05-09T05:26:03.305Z,10.6853
2024-05-09T05:27:04.240Z,10.6990
2024-05-09T05:28:06.568Z,10.6461
2024-05-09T05:29:08.905Z,10.6435
2024-05-09T05:30:17.628Z,10.6310
2024-05-09T05:31:13.097Z,10.7075
2024-05-09T05:32:13.194Z,10.6562
2024-05-09T05:33:13.582Z,10.6181
2024-05-09T05:34:14.123Z,10.5941
2024-05-09T05:35:16.401Z,10.6036
2024-05-09T05:36:16.346Z,10.5754
2024-05-09T05:37:18.505Z,10.6163
2024-05-09T05:38:24.827Z,10.6071
2024-05-09T05:39:21.866Z,10.6160
2024-05-09T05:40:32.356Z,10.5935
2024-05-09T05:41:25.452Z,10.6362
2024-05-09T05:42:25.753Z,10.7811
2024-05-09T05:43:28.035Z,10.7473
2024-05-09T05:44:30.432Z,10.6956
2024-05-09T05:45:30.358Z,10.7087
2024-05-09T05:46:32.683Z,10.8137
2024-05-09T05:47:35.218Z,10.7944
2024-05-09T05:48:35.331Z,10.8049
2024-05-09T05:49:37.820Z,10.7158
2024-05-09T05:50:38.779Z,10.7190
2024-05-09T05:51:38.954Z,10.7332
2024-05-09T05:52:41.245Z,10.6616
2024-05-09T05:53:42.288Z,10.6717
2024-05-09T05:54:42.282Z,10.6611
2024-05-09T05:55:44.718Z,10.6786
2024-05-09T05:56:44.996Z,10.7631
2024-05-09T05:57:45.135Z,10.8118
2024-05-09T05:58:47.378Z,10.7550
2024-05-09T05:59:49.677Z,10.7342
2024-05-09T06:00:52.413Z,10.7799
2024-05-09T06:01:52.365Z,10.7218
2024-05-09T06:02:52.462Z,10.6899
2024-05-09T06:03:53.484Z,10.6803
2024-05-09T06:04:54.046Z,10.7384
2024-05-09T06:05:54.120Z,10.7681
2024-05-09T06:06:56.353Z,10.7219
2024-05-09T06:07:58.698Z,10.7357
2024-05-09T06:08:58.982Z,10.7846
2024-05-09T06:10:01.280Z,10.8109
2024-05-09T06:11:03.751Z,10.8545
2024-05-09T06:12:03.831Z,10.8679
2024-05-09T06:13:05.365Z,10.9202
2024-05-09T06:14:05.282Z,10.8651
2024-05-09T06:15:07.649Z,10.9091
2024-05-09T06:16:09.959Z,11.0163
2024-05-09T06:17:12.399Z,11.0067
2024-05-09T06:18:13.014Z,10.9577
2024-05-09T06:19:13.218Z,10.9964
2024-05-09T06:20:20.560Z,11.0638
2024-05-09T06:21:15.482Z,11.1943
2024-05-09T06:22:15.960Z,11.1069
2024-05-09T06:23:18.214Z,11.1308
2024-05-09T06:24:18.598Z,11.1970
2024-05-09T06:25:20.839Z,11.2511
2024-05-09T06:26:23.223Z,11.2694
2024-05-09T06:27:23.963Z,11.4830
2024-05-09T06:28:23.788Z,11.5491
2024-05-09T06:29:26.144Z,11.3775
2024-05-09T06:30:34.902Z,11.4305
2024-05-09T06:31:27.010Z,11.4620
2024-05-09T06:32:29.321Z,11.4929
2024-05-09T06:33:29.585Z,11.5502
2024-05-09T06:34:29.783Z,11.6635
2024-05-09T06:35:29.858Z,11.5687
2024-05-09T06:36:30.402Z,11.7634
2024-05-09T06:37:30.303Z,11.6574
2024-05-09T06:38:32.591Z,11.6548
2024-05-09T06:39:32.543Z,11.8802
2024-05-09T06:40:38.323Z,11.8153
2024-05-09T06:41:35.849Z,11.7340
2024-05-09T06:42:38.070Z,11.6822
2024-05-09T06:43:40.131Z,11.7003
2024-05-09T06:44:42.291Z,11.7444
2024-05-09T06:45:44.481Z,11.7297
2024-05-09T06:46:46.868Z,11.7757
2024-05-09T06:47:46.954Z,11.9424
2024-05-09T06:48:50.503Z,12.0059
2024-05-09T06:49:50.623Z,11.9694
2024-05-09T06:50:50.726Z,12.1242
2024-05-09T06:51:50.751Z,12.3678
2024-05-09T06:52:52.915Z,12.3919
2024-05-09T06:53:55.067Z,12.3427
2024-05-09T06:54:57.356Z,12.2950
2024-05-09T06:55:59.630Z,12.2250
2024-05-09T06:57:01.932Z,12.2411
2024-05-09T06:58:03.993Z,12.1541
2024-05-09T06:59:06.325Z,12.3083
2024-05-09T07:00:15.466Z,12.2742
2024-05-09T07:01:09.600Z,12.1277
2024-05-09T07:02:09.635Z,12.0215
2024-05-09T07:03:10.078Z,12.0270
2024-05-09T07:04:11.303Z,12.1036
2024-05-09T07:05:11.627Z,12.1176
2024-05-09T07:06:11.656Z,12.1485
2024-05-09T07:07:14.045Z,12.1596
2024-05-09T07:08:16.554Z,12.0672
2024-05-09T07:09:16.789Z,12.1525
2024-05-09T07:10:22.143Z,12.2074
2024-05-09T07:11:18.025Z,12.1575
2024-05-09T07:12:19.090Z,12.1545
2024-05-09T07:13:19.107Z,11.9863
2024-05-09T07:14:21.552Z,12.0923
2024-05-09T07:15:21.795Z,12.0863
2024-05-09T07:16:21.800Z,12.1162
2024-05-09T07:17:24.240Z,12.0735
2024-05-09T07:18:24.504Z,12.0193
2024-05-09T07:19:25.012Z,11.9787
2024-05-09T07:20:32.491Z,11.9283
2024-05-09T07:21:26.093Z,12.0395
2024-05-09T07:22:25.976Z,12.1119
2024-05-09T07:23:26.044Z,12.3041
2024-05-09T07:24:26.042Z,12.2911
2024-05-09T07:25:28.369Z,12.1515
2024-05-09T07:26:28.329Z,12.0889
2024-05-09T07:27:29.916Z,12.1214
2024-05-09T07:28:30.073Z,12.2890
2024-05-09T07:29:34.714Z,12.1680
2024-05-09T07:30:34.765Z,12.1450
2024-05-09T07:31:35.162Z,12.0813
2024-05-09T07:32:37.567Z,12.2121
2024-05-09T07:33:38.570Z,12.2108
2024-05-09T07:34:38.634Z,12.1958
2024-05-09T07:35:38.839Z,12.1433
2024-05-09T07:36:39.886Z,12.2977
2024-05-09T07:37:42.215Z,12.3207
2024-05-09T07:38:42.242Z,12.3470
2024-05-09T07:39:42.552Z,12.3870
2024-05-09T07:40:42.575Z,12.3388
2024-05-09T07:41:44.912Z,12.2959
2024-05-09T07:42:44.995Z,12.2258
2024-05-09T07:43:47.329Z,12.3468
2024-05-09T07:44:49.573Z,12.2252
2024-05-09T07:45:54.468Z,12.1936
2024-05-09T07:48:13.727Z,12.2306
2024-05-09T07:50:34.746Z,12.2147
2024-05-09T07:53:22.002Z,12.3954
2024-05-09T07:54:01.395Z,12.4137
2024-05-09T07:55:02.035Z,12.2959
2024-05-09T07:56:02.171Z,12.5292
2024-05-09T07:57:03.385Z,12.3359
2024-05-09T07:58:03.485Z,12.4056
2024-05-09T07:59:05.812Z,12.6325
2024-05-09T08:00:06.680Z,12.4630
2024-05-09T08:01:07.043Z,12.4426
2024-05-09T08:02:07.086Z,12.3612
2024-05-09T08:03:07.013Z,12.3863
2024-05-09T08:04:09.274Z,12.5466
2024-05-09T08:05:09.388Z,12.4711
2024-05-09T08:06:10.390Z,12.4856
2024-05-09T08:07:12.697Z,12.5607
2024-05-09T08:08:14.997Z,12.6941
2024-05-09T08:09:21.013Z,12.9334
2024-05-09T08:10:22.107Z,12.8508
2024-05-09T08:11:18.310Z,12.8520
2024-05-09T08:12:20.612Z,12.7760
2024-05-09T08:13:23.135Z,12.7172
2024-05-09T08:14:23.196Z,12.7388
2024-05-09T08:15:25.486Z,12.9220
2024-05-09T08:16:25.578Z,12.9085
2024-05-09T08:17:25.569Z,12.7245
2024-05-09T08:18:27.990Z,12.7775
2024-05-09T08:19:28.085Z,12.8055
2024-05-09T08:20:33.720Z,12.7847
2024-05-09T08:21:31.482Z,12.8610
2024-05-09T08:22:32.439Z,12.7731
2024-05-09T08:23:34.700Z,12.7532
2024-05-09T08:24:36.984Z,12.6105
2024-05-09T08:25:39.196Z,12.5872
2024-05-09T08:26:41.466Z,12.5395
2024-05-09T08:27:42.555Z,12.6520
2024-05-09T08:28:42.416Z,12.6099
2024-05-09T08:29:44.713Z,12.6390
2024-05-09T08:30:44.840Z,12.6019
2024-05-09T08:31:45.839Z,12.5899
2024-05-09T08:32:48.353Z,12.5866
2024-05-09T08:33:48.668Z,12.5891
2024-05-09T08:34:48.721Z,12.7942
2024-05-09T08:35:50.024Z,12.6261
2024-05-09T08:36:52.376Z,12.6356
2024-05-09T08:37:53.069Z,12.6917
2024-05-09T08:38:53.062Z,12.7160
2024-05-09T08:39:53.204Z,12.7161
2024-05-09T08:40:55.593Z,12.6932
2024-05-09T08:41:55.650Z,12.8003
2024-05-09T08:42:57.874Z,12.6478
2024-05-09T08:44:00.121Z,12.7987
2024-05-09T08:45:02.303Z,12.9114
2024-05-09T08:46:02.393Z,13.0023
2024-05-09T08:47:02.981Z,13.2186
2024-05-09T08:48:05.421Z,13.0670
2024-05-09T08:49:06.058Z,13.0538
2024-05-09T08:50:08.570Z,13.1399
2024-05-09T08:51:06.583Z,13.3210
2024-05-09T08:52:07.546Z,13.0827
2024-05-09T08:53:07.856Z,13.1906
2024-05-09T08:54:07.937Z,13.4009
2024-05-09T08:55:10.363Z,13.3212
2024-05-09T08:56:10.502Z,13.3573
2024-05-09T08:57:12.721Z,13.3516
2024-05-09T08:58:15.353Z,13.3598
2024-05-09T08:59:16.168Z,13.2524
2024-05-09T09:00:29.049Z,13.2312
2024-05-09T09:01:19.702Z,13.1702
2024-05-09T09:02:21.293Z,13.3296
2024-05-09T09:03:21.850Z,13.4016
2024-05-09T09:04:24.259Z,13.2920
2024-05-09T09:05:24.426Z,13.2191
2024-05-09T09:06:24.357Z,13.1498
2024-05-09T09:07:26.784Z,13.1513
2024-05-09T09:08:27.683Z,13.2769
2024-05-09T09:09:27.996Z,13.1665
2024-05-09T09:10:32.360Z,13.3100
2024-05-09T09:11:30.827Z,13.2641
2024-05-09T09:12:33.107Z,13.2283
2024-05-09T09:13:35.350Z,13.0464
2024-05-09T09:14:37.596Z,13.0014
2024-05-09T09:15:37.664Z,13.1303
2024-05-09T09:16:39.938Z,13.2254
2024-05-09T09:17:42.387Z,13.1206
2024-05-09T09:18:42.644Z,13.1547
2024-05-09T09:19:42.584Z,13.2750
2024-05-09T09:20:45.005Z,13.3005
2024-05-09T09:21:45.060Z,13.1354
2024-05-09T09:22:45.122Z,13.2000
2024-05-09T09:23:47.527Z,13.2621
2024-05-09T09:24:49.724Z,13.3995
2024-05-09T09:25:50.863Z,13.2279
2024-05-09T09:26:51.713Z,13.4994
2024-05-09T09:27:53.991Z,13.4385
2024-05-09T09:28:54.037Z,13.5012
2024-05-09T09:29:56.322Z,13.7142
2024-05-09T09:30:56.238Z,13.6756
2024-05-09T09:31:58.466Z,13.7029
2024-05-09T09:33:01.009Z,14.1109
2024-05-09T09:34:01.283Z,13.8838
2024-05-09T09:35:01.395Z,13.6763
2024-05-09T09:36:01.531Z,13.5956
2024-05-09T09:37:03.823Z,13.5803
2024-05-09T09:38:03.823Z,13.6571
2024-05-09T09:39:06.062Z,13.5942
2024-05-09T09:40:08.949Z,13.5552
2024-05-09T09:41:08.895Z,13.4817
2024-05-09T09:42:09.804Z,13.5980
2024-05-09T09:43:12.212Z,14.0225
2024-05-09T09:44:12.279Z,13.7272
2024-05-09T09:45:14.632Z,13.8632
2024-05-09T09:46:17.121Z,13.7755
2024-05-09T09:47:17.373Z,13.7411
2024-05-09T09:48:19.748Z,13.7955
2024-05-09T09:49:21.538Z,14.0639
2024-05-09T09:50:27.706Z,13.8835
2024-05-09T09:51:22.620Z,13.7130
2024-05-09T09:52:23.028Z,13.7615
2024-05-09T09:53:22.931Z,13.8522
2024-05-09T09:54:25.231Z,13.9251
2024-05-09T09:55:26.062Z,13.9951
2024-05-09T09:56:25.959Z,14.2078
2024-05-09T09:57:26.221Z,14.1597
2024-05-09T09:58:28.563Z,14.4435
2024-05-09T09:59:28.524Z,14.6080
2024-05-09T10:00:33.290Z,14.8312
2024-05-09T10:01:31.911Z,14.6897
2024-05-09T10:02:32.172Z,14.6720
2024-05-09T10:03:32.342Z,15.2107
2024-05-09T10:04:33.417Z,15.0105
2024-05-09T10:05:33.717Z,14.7804
2024-05-09T10:06:33.755Z,14.5565
2024-05-09T10:07:35.924Z,14.6415
2024-05-09T10:08:38.038Z,15.1107
2024-05-09T10:09:40.283Z,15.1713
2024-05-09T10:10:42.690Z,14.8700
2024-05-09T10:12:44.854Z,15.5479
2024-05-09T10:13:47.071Z,15.2991
2024-05-09T10:14:49.367Z,15.2796
2024-05-09T10:15:52.146Z,15.2085
2024-05-09T10:16:52.295Z,15.0882
2024-05-09T10:17:54.712Z,14.8254
2024-05-09T10:18:54.822Z,15.0815
2024-05-09T10:19:54.864Z,14.7186
2024-05-09T10:20:54.932Z,14.7331
2024-05-09T10:21:57.258Z,14.7646
2024-05-09T10:22:57.328Z,14.8106
2024-05-09T10:23:57.645Z,14.7632
2024-05-09T10:25:01.505Z,14.9884
2024-05-09T10:26:03.790Z,15.2906
2024-05-09T10:27:03.616Z,15.3827
2024-05-09T10:28:04.135Z,15.1900
2024-05-09T10:29:06.439Z,15.0856
2024-05-09T10:30:14.412Z,15.0594
2024-05-09T10:31:09.701Z,15.0807
2024-05-09T10:32:11.920Z,15.0832
2024-05-09T10:33:13.008Z,15.1314
2024-05-09T10:34:13.172Z,15.1485
2024-05-09T10:35:13.146Z,15.0760
2024-05-09T10:36:13.319Z,15.2300
2024-05-09T10:37:15.695Z,15.1279
2024-05-09T10:38:15.637Z,15.8347
2024-05-09T10:39:16.014Z,15.8092
2024-05-09T10:40:25.778Z,15.0426
2024-05-09T10:41:19.112Z,14.7052
2024-05-09T10:42:21.311Z,14.9336
2024-05-09T10:43:21.336Z,15.0498
2024-05-09T10:44:21.153Z,14.6679
2024-05-09T10:45:23.487Z,14.8008
2024-05-09T10:46:25.759Z,14.6289
2024-05-09T10:47:28.199Z,14.6445
2024-05-09T10:48:29.323Z,15.1578
2024-05-09T10:49:29.267Z,15.0865
2024-05-09T10:50:34.238Z,14.7869
2024-05-09T10:51:33.226Z,14.9369
2024-05-09T10:52:35.519Z,15.0901
2024-05-09T10:53:37.859Z,15.0672
2024-05-09T10:54:37.894Z,15.1797
2024-05-09T10:55:37.881Z,15.6048
2024-05-09T10:56:37.768Z,15.7563
2024-05-09T10:57:39.986Z,15.1960
2024-05-09T10:58:42.401Z,15.4054
2024-05-09T10:59:42.371Z,15.2816
2024-05-09T11:00:44.794Z,15.5012
2024-05-09T11:01:45.018Z,15.3402
2024-05-09T11:02:45.053Z,15.4911
2024-05-09T11:03:47.572Z,15.6211
2024-05-09T11:04:47.951Z,15.6757
2024-05-09T11:05:47.997Z,15.8413
2024-05-09T11:06:48.073Z,15.5211
2024-05-09T11:07:50.570Z,15.6886
2024-05-09T11:08:50.486Z,15.8833
2024-05-09T11:09:52.903Z,15.5462
2024-05-09T11:10:53.039Z,15.8657
2024-05-09T11:11:53.226Z,15.8114
2024-05-09T11:12:53.293Z,15.9357
2024-05-09T11:13:55.546Z,16.2958
2024-05-09T11:14:57.860Z,15.7253
2024-05-09T11:16:00.179Z,15.9420
2024-05-09T11:17:00.276Z,15.9635
2024-05-09T11:18:02.782Z,15.5897
2024-05-09T11:19:04.916Z,15.7964
2024-05-09T11:20:10.773Z,16.0658
2024-05-09T11:21:06.106Z,16.3928
2024-05-09T11:22:08.570Z,16.1596
2024-05-09T11:23:08.578Z,16.3415
2024-05-09T11:24:11.482Z,17.3917
2024-05-09T11:25:11.853Z,16.6723
2024-05-09T11:26:12.590Z,16.7131
2024-05-09T11:27:12.522Z,16.3850
2024-05-09T11:28:15.046Z,16.5999
2024-05-09T11:29:17.935Z,16.0576
2024-05-09T11:30:24.190Z,16.1846
2024-05-09T11:31:18.255Z,16.0097
2024-05-09T11:32:18.302Z,15.9693
2024-05-09T11:33:19.220Z,16.1402
2024-05-09T11:34:19.373Z,15.9396
2024-05-09T11:35:19.637Z,15.9649
2024-05-09T11:36:19.555Z,15.9718
2024-05-09T11:37:19.635Z,16.2391
2024-05-09T11:38:19.584Z,15.8782
2024-05-09T11:39:21.779Z,16.1143
2024-05-09T11:40:26.035Z,15.9097
2024-05-09T11:41:25.076Z,16.1300
2024-05-09T11:42:25.206Z,16.4818
2024-05-09T11:43:25.475Z,16.3308
2024-05-09T11:44:25.341Z,16.6325
2024-05-09T11:45:27.554Z,16.4239
2024-05-09T11:46:29.703Z,16.8393
2024-05-09T11:47:32.075Z,16.7255
2024-05-09T11:48:32.331Z,16.2463
2024-05-09T11:49:32.613Z,15.9447
2024-05-09T11:50:35.498Z,16.5110
2024-05-09T11:51:33.432Z,16.2024
2024-05-09T11:52:35.665Z,16.5708
2024-05-09T11:53:37.818Z,16.1697
2024-05-09T11:54:40.114Z,16.1521
2024-05-09T11:55:42.284Z,16.1474
2024-05-09T11:56:44.513Z,15.7155
2024-05-09T11:57:46.848Z,15.5967
2024-05-09T11:58:47.136Z,15.7867
2024-05-09T11:59:50.061Z,15.6196
2024-05-09T12:00:50.044Z,15.6645
2024-05-09T12:01:50.295Z,15.7596
2024-05-09T12:02:50.318Z,15.7897
2024-05-09T12:03:52.743Z,15.4807
2024-05-09T12:04:52.814Z,15.5627
2024-05-09T12:05:55.060Z,15.8385
2024-05-09T12:06:57.326Z,15.8913
2024-05-09T12:07:59.450Z,15.8366
2024-05-09T12:09:01.622Z,15.7747
2024-05-09T12:10:06.080Z,16.0005
2024-05-09T12:11:05.753Z,16.9770
2024-05-09T12:12:08.038Z,16.3950
2024-05-09T12:13:10.400Z,16.7526
2024-05-09T12:14:12.676Z,17.1265
2024-05-09T12:15:14.996Z,16.7769
2024-05-09T12:16:17.301Z,16.5194
2024-05-09T12:17:19.609Z,16.3498
2024-05-09T12:18:21.801Z,16.2177
2024-05-09T12:19:24.049Z,16.5802
2024-05-09T12:20:34.727Z,16.6845
2024-05-09T12:21:27.285Z,16.2584
2024-05-09T12:22:29.455Z,16.7739
2024-05-09T12:23:31.641Z,16.5483
2024-05-09T12:24:33.872Z,16.3704
2024-05-09T12:25:36.970Z,17.0293
2024-05-09T12:26:39.133Z,16.9991